sensor_id;sensor_type;location;lat;lon;timestamp;pressure;altitude;pressure_sealevel;temperature
15360;BMP280;7779;49.596;11.070;2023-12-20T00:01:35;98202.34;;;10.01
15360;BMP280;7779;49.596;11.070;2023-12-20T00:04:02;98208.00;;;9.98
15360;BMP280;7779;49.596;11.070;2023-12-20T00:06:29;98211.47;;;10.00
15360;BMP280;7779;49.596;11.070;2023-12-20T00:08:55;98202.25;;;9.99
15360;BMP280;7779;49.596;11.070;2023-12-20T00:11:21;98203.09;;;10.00
15360;BMP280;7779;49.596;11.070;2023-12-20T00:13:46;98193.78;;;9.97
15360;BMP280;7779;49.596;11.070;2023-12-20T00:16:12;98196.22;;;9.96
15360;BMP280;7779;49.596;11.070;2023-12-20T00:18:38;98194.56;;;9.96
15360;BMP280;7779;49.596;11.070;2023-12-20T00:21:04;98193.69;;;9.96
15360;BMP280;7779;49.596;11.070;2023-12-20T00:23:29;98185.34;;;9.95
15360;BMP280;7779;49.596;11.070;2023-12-20T00:25:55;98175.34;;;9.95
15360;BMP280;7779;49.596;11.070;2023-12-20T00:28:21;98175.34;;;9.95
15360;BMP280;7779;49.596;11.070;2023-12-20T00:30:48;98174.53;;;9.96
15360;BMP280;7779;49.596;11.070;2023-12-20T00:33:13;98168.78;;;9.97
15360;BMP280;7779;49.596;11.070;2023-12-20T00:35:39;98167.13;;;9.98
15360;BMP280;7779;49.596;11.070;2023-12-20T00:38:05;98171.41;;;10.00
15360;BMP280;7779;49.596;11.070;2023-12-20T00:40:32;98166.41;;;10.00
15360;BMP280;7779;49.596;11.070;2023-12-20T00:42:58;98171.41;;;10.00
15360;BMP280;7779;49.596;11.070;2023-12-20T00:45:24;98168.91;;;10.00
15360;BMP280;7779;49.596;11.070;2023-12-20T00:47:50;98160.47;;;9.98
15360;BMP280;7779;49.596;11.070;2023-12-20T00:50:16;98165.47;;;9.98
15360;BMP280;7779;49.596;11.070;2023-12-20T00:52:41;98162.91;;;9.97
15360;BMP280;7779;49.596;11.070;2023-12-20T00:55:07;98162.03;;;9.96
15360;BMP280;7779;49.596;11.070;2023-12-20T00:57:34;98159.44;;;9.95
15360;BMP280;7779;49.596;11.070;2023-12-20T00:59:59;98168.59;;;9.94
15360;BMP280;7779;49.596;11.070;2023-12-20T01:02:25;98156.88;;;9.93
15360;BMP280;7779;49.596;11.070;2023-12-20T01:04:51;98145.13;;;9.92
15360;BMP280;7779;49.596;11.070;2023-12-20T01:07:16;98158.44;;;9.91
15360;BMP280;7779;49.596;11.070;2023-12-20T01:09:42;98139.16;;;9.90
15360;BMP280;7779;49.596;11.070;2023-12-20T01:12:08;98138.28;;;9.90
15360;BMP280;7779;49.596;11.070;2023-12-20T01:14:33;98143.97;;;9.87
15360;BMP280;7779;49.596;11.070;2023-12-20T01:16:59;98147.28;;;9.86
15360;BMP280;7779;49.596;11.070;2023-12-20T01:19:25;98133.00;;;9.85
15360;BMP280;7779;49.596;11.070;2023-12-20T01:21:52;98137.88;;;9.82
15360;BMP280;7779;49.596;11.070;2023-12-20T01:24:18;98138.63;;;9.81
15360;BMP280;7779;49.596;11.070;2023-12-20T01:26:44;98131.84;;;9.79
15360;BMP280;7779;49.596;11.070;2023-12-20T01:29:10;98140.94;;;9.78
15360;BMP280;7779;49.596;11.070;2023-12-20T01:31:35;98130.00;;;9.76
15360;BMP280;7779;49.596;11.070;2023-12-20T01:34:01;98129.91;;;9.75
15360;BMP280;7779;49.596;11.070;2023-12-20T01:36:27;98132.41;;;9.75
15360;BMP280;7779;49.596;11.070;2023-12-20T01:38:52;98122.34;;;9.73
15360;BMP280;7779;49.596;11.070;2023-12-20T01:41:18;98122.34;;;9.73
15360;BMP280;7779;49.596;11.070;2023-12-20T01:43:44;98126.47;;;9.73
15360;BMP280;7779;49.596;11.070;2023-12-20T01:46:11;98118.97;;;9.73
15360;BMP280;7779;49.596;11.070;2023-12-20T01:48:37;98117.16;;;9.71
15360;BMP280;7779;49.596;11.070;2023-12-20T01:51:04;98118.91;;;9.72
15360;BMP280;7779;49.596;11.070;2023-12-20T01:53:31;98122.94;;;9.70
15360;BMP280;7779;49.596;11.070;2023-12-20T01:55:58;98113.63;;;9.67
15360;BMP280;7779;49.596;11.070;2023-12-20T01:58:25;98123.47;;;9.64
15360;BMP280;7779;49.596;11.070;2023-12-20T02:00:51;98119.97;;;9.61
15360;BMP280;7779;49.596;11.070;2023-12-20T02:03:18;98121.47;;;9.59
15360;BMP280;7779;49.596;11.070;2023-12-20T02:05:45;98123.91;;;9.57
15360;BMP280;7779;49.596;11.070;2023-12-20T02:08:12;98125.44;;;9.55
15360;BMP280;7779;49.596;11.070;2023-12-20T02:10:38;98122.19;;;9.56
15360;BMP280;7779;49.596;11.070;2023-12-20T02:13:04;98118.75;;;9.54
15360;BMP280;7779;49.596;11.070;2023-12-20T02:15:30;98121.06;;;9.51
15360;BMP280;7779;49.596;11.070;2023-12-20T02:17:56;98111.06;;;9.51
15360;BMP280;7779;49.596;11.070;2023-12-20T02:20:21;98111.84;;;9.50
15360;BMP280;7779;49.596;11.070;2023-12-20T02:22:47;98109.25;;;9.49
15360;BMP280;7779;49.596;11.070;2023-12-20T02:25:13;98115.00;;;9.48
15360;BMP280;7779;49.596;11.070;2023-12-20T02:27:39;98113.31;;;9.47
15360;BMP280;7779;49.596;11.070;2023-12-20T02:30:08;98109.88;;;9.45
15360;BMP280;7779;49.596;11.070;2023-12-20T02:32:34;98102.97;;;9.41
15360;BMP280;7779;49.596;11.070;2023-12-20T02:34:59;98101.16;;;9.38
15360;BMP280;7779;49.596;11.070;2023-12-20T02:37:25;98093.56;;;9.37
15360;BMP280;7779;49.596;11.070;2023-12-20T02:39:51;98094.25;;;9.34
15360;BMP280;7779;49.596;11.070;2023-12-20T02:42:16;98088.41;;;9.34
15360;BMP280;7779;49.596;11.070;2023-12-20T02:44:42;98107.50;;;9.33
15360;BMP280;7779;49.596;11.070;2023-12-20T02:47:08;98101.56;;;9.32
15360;BMP280;7779;49.596;11.070;2023-12-20T02:49:33;98116.47;;;9.30
15360;BMP280;7779;49.596;11.070;2023-12-20T02:51:59;98112.28;;;9.29
15360;BMP280;7779;49.596;11.070;2023-12-20T02:54:25;98111.31;;;9.27
15360;BMP280;7779;49.596;11.070;2023-12-20T02:56:50;98107.09;;;9.26
15360;BMP280;7779;49.596;11.070;2023-12-20T02:59:16;98109.50;;;9.25
15360;BMP280;7779;49.596;11.070;2023-12-20T03:01:44;98107.88;;;9.25
15360;BMP280;7779;49.596;11.070;2023-12-20T03:04:11;98111.94;;;9.23
15360;BMP280;7779;49.596;11.070;2023-12-20T03:06:37;98109.44;;;9.23
15360;BMP280;7779;49.596;11.070;2023-12-20T03:09:03;98117.69;;;9.22
15360;BMP280;7779;49.596;11.070;2023-12-20T03:11:28;98105.91;;;9.20
15360;BMP280;7779;49.596;11.070;2023-12-20T03:13:55;98103.31;;;9.18
15360;BMP280;7779;49.596;11.070;2023-12-20T03:16:21;98108.91;;;9.14
15360;BMP280;7779;49.596;11.070;2023-12-20T03:18:47;98107.88;;;9.11
15360;BMP280;7779;49.596;11.070;2023-12-20T03:21:12;98113.53;;;9.08
15360;BMP280;7779;49.596;11.070;2023-12-20T03:23:38;98105.09;;;9.06
15360;BMP280;7779;49.596;11.070;2023-12-20T03:26:07;98117.41;;;9.03
15360;BMP280;7779;49.596;11.070;2023-12-20T03:28:33;98113.97;;;9.01
15360;BMP280;7779;49.596;11.070;2023-12-20T03:30:59;98118.00;;;8.99
15360;BMP280;7779;49.596;11.070;2023-12-20T03:33:24;98114.53;;;8.97
15360;BMP280;7779;49.596;11.070;2023-12-20T03:35:50;98119.53;;;8.97
15360;BMP280;7779;49.596;11.070;2023-12-20T03:38:16;98121.09;;;8.95
15360;BMP280;7779;49.596;11.070;2023-12-20T03:40:42;98125.34;;;8.96
15360;BMP280;7779;49.596;11.070;2023-12-20T03:43:07;98113.59;;;8.95
15360;BMP280;7779;49.596;11.070;2023-12-20T03:45:33;98117.66;;;8.94
15360;BMP280;7779;49.596;11.070;2023-12-20T03:47:59;98117.66;;;8.94
15360;BMP280;7779;49.596;11.070;2023-12-20T03:50:26;98125.94;;;8.93
15360;BMP280;7779;49.596;11.070;2023-12-20T03:52:52;98122.50;;;8.91
15360;BMP280;7779;49.596;11.070;2023-12-20T03:55:18;98129.09;;;8.90
15360;BMP280;7779;49.596;11.070;2023-12-20T03:57:44;98119.00;;;8.89
15360;BMP280;7779;49.596;11.070;2023-12-20T04:00:11;98122.50;;;8.91
15360;BMP280;7779;49.596;11.070;2023-12-20T04:02:41;98128.16;;;8.88
15360;BMP280;7779;49.596;11.070;2023-12-20T04:05:08;98124.00;;;8.89
15360;BMP280;7779;49.596;11.070;2023-12-20T04:07:35;98135.72;;;8.90
15360;BMP280;7779;49.596;11.070;2023-12-20T04:10:02;98124.78;;;8.88
15360;BMP280;7779;49.596;11.070;2023-12-20T04:12:29;98129.00;;;8.89
15360;BMP280;7779;49.596;11.070;2023-12-20T04:14:56;98115.66;;;8.88
15360;BMP280;7779;49.596;11.070;2023-12-20T04:17:22;98125.75;;;8.90
15360;BMP280;7779;49.596;11.070;2023-12-20T04:19:51;98132.47;;;8.91
15360;BMP280;7779;49.596;11.070;2023-12-20T04:22:18;98134.97;;;8.91
15360;BMP280;7779;49.596;11.070;2023-12-20T04:24:44;98133.25;;;8.90
15360;BMP280;7779;49.596;11.070;2023-12-20T04:27:11;98118.84;;;8.86
15360;BMP280;7779;49.596;11.070;2023-12-20T04:29:36;98117.41;;;8.89
15360;BMP280;7779;49.596;11.070;2023-12-20T04:32:02;98128.25;;;8.90
15360;BMP280;7779;49.596;11.070;2023-12-20T04:34:28;98124.88;;;8.89
15360;BMP280;7779;49.596;11.070;2023-12-20T04:36:54;98122.28;;;8.88
15360;BMP280;7779;49.596;11.070;2023-12-20T04:39:20;98132.28;;;8.88
15360;BMP280;7779;49.596;11.070;2023-12-20T04:41:45;98129.78;;;8.88
15360;BMP280;7779;49.596;11.070;2023-12-20T04:44:13;98128.06;;;8.87
15360;BMP280;7779;49.596;11.070;2023-12-20T04:46:39;98127.28;;;8.88
15360;BMP280;7779;49.596;11.070;2023-12-20T04:49:05;98134.00;;;8.89
15360;BMP280;7779;49.596;11.070;2023-12-20T04:51:33;98136.50;;;8.89
15360;BMP280;7779;49.596;11.070;2023-12-20T04:54:00;98133.13;;;8.88
15360;BMP280;7779;49.596;11.070;2023-12-20T04:56:26;98132.38;;;8.89
15360;BMP280;7779;49.596;11.070;2023-12-20T04:58:51;98142.28;;;8.88
15360;BMP280;7779;49.596;11.070;2023-12-20T05:01:17;98138.03;;;8.87
15360;BMP280;7779;49.596;11.070;2023-12-20T05:03:43;98130.53;;;8.87
15360;BMP280;7779;49.596;11.070;2023-12-20T05:06:10;98133.84;;;8.86
15360;BMP280;7779;49.596;11.070;2023-12-20T05:08:36;98134.59;;;8.85
15360;BMP280;7779;49.596;11.070;2023-12-20T05:11:02;98149.69;;;8.86
15360;BMP280;7779;49.596;11.070;2023-12-20T05:13:28;98148.81;;;8.86
15360;BMP280;7779;49.596;11.070;2023-12-20T05:15:54;98140.38;;;8.84
15360;BMP280;7779;49.596;11.070;2023-12-20T05:18:21;98154.47;;;8.83
15360;BMP280;7779;49.596;11.070;2023-12-20T05:20:47;98154.47;;;8.83
15360;BMP280;7779;49.596;11.070;2023-12-20T05:23:12;98146.94;;;8.82
15360;BMP280;7779;49.596;11.070;2023-12-20T05:25:39;98150.38;;;8.84
15360;BMP280;7779;49.596;11.070;2023-12-20T05:28:05;98147.88;;;8.84
15360;BMP280;7779;49.596;11.070;2023-12-20T05:30:31;98158.72;;;8.84
15360;BMP280;7779;49.596;11.070;2023-12-20T05:32:57;98162.06;;;8.85
15360;BMP280;7779;49.596;11.070;2023-12-20T05:35:22;98162.97;;;8.85
15360;BMP280;7779;49.596;11.070;2023-12-20T05:37:49;98168.81;;;8.86
15360;BMP280;7779;49.596;11.070;2023-12-20T05:40:15;98162.06;;;8.85
15360;BMP280;7779;49.596;11.070;2023-12-20T05:42:41;98160.47;;;8.85
15360;BMP280;7779;49.596;11.070;2023-12-20T05:45:07;98157.06;;;8.85
15360;BMP280;7779;49.596;11.070;2023-12-20T05:47:33;98158.72;;;8.84
15360;BMP280;7779;49.596;11.070;2023-12-20T05:49:58;98167.84;;;8.84
15360;BMP280;7779;49.596;11.070;2023-12-20T05:52:24;98179.56;;;8.85
15360;BMP280;7779;49.596;11.070;2023-12-20T05:54:50;98181.19;;;8.84
15360;BMP280;7779;49.596;11.070;2023-12-20T05:57:15;98185.34;;;8.84
15360;BMP280;7779;49.596;11.070;2023-12-20T05:59:41;98187.06;;;8.85
15360;BMP280;7779;49.596;11.070;2023-12-20T06:02:07;98192.94;;;8.85
15360;BMP280;7779;49.596;11.070;2023-12-20T06:04:32;98188.78;;;8.86
15360;BMP280;7779;49.596;11.070;2023-12-20T06:06:59;98190.50;;;8.87
15360;BMP280;7779;49.596;11.070;2023-12-20T06:09:27;98195.50;;;8.87
15360;BMP280;7779;49.596;11.070;2023-12-20T06:11:52;98202.94;;;8.85
15360;BMP280;7779;49.596;11.070;2023-12-20T06:14:19;98204.53;;;8.85
15360;BMP280;7779;49.596;11.070;2023-12-20T06:16:45;98207.91;;;8.85
15360;BMP280;7779;49.596;11.070;2023-12-20T06:19:11;98212.91;;;8.85
15360;BMP280;7779;49.596;11.070;2023-12-20T06:21:37;98217.91;;;8.85
15360;BMP280;7779;49.596;11.070;2023-12-20T06:24:03;98217.13;;;8.86
15360;BMP280;7779;49.596;11.070;2023-12-20T06:26:29;98227.22;;;8.88
15360;BMP280;7779;49.596;11.070;2023-12-20T06:28:54;98215.56;;;8.88
15360;BMP280;7779;49.596;11.070;2023-12-20T06:31:20;98228.91;;;8.89
15360;BMP280;7779;49.596;11.070;2023-12-20T06:33:46;98216.44;;;8.89
15360;BMP280;7779;49.596;11.070;2023-12-20T06:36:13;98232.41;;;8.91
15360;BMP280;7779;49.596;11.070;2023-12-20T06:38:39;98227.41;;;8.91
15360;BMP280;7779;49.596;11.070;2023-12-20T06:41:05;98232.56;;;8.94
15360;BMP280;7779;49.596;11.070;2023-12-20T06:43:31;98226.03;;;8.95
15360;BMP280;7779;49.596;11.070;2023-12-20T06:45:59;98230.25;;;8.96
15360;BMP280;7779;49.596;11.070;2023-12-20T06:48:25;98231.22;;;8.98
15360;BMP280;7779;49.596;11.070;2023-12-20T06:50:51;98233.81;;;9.00
15360;BMP280;7779;49.596;11.070;2023-12-20T06:53:17;98239.84;;;9.03
15360;BMP280;7779;49.596;11.070;2023-12-20T06:55:42;98243.22;;;9.04
15360;BMP280;7779;49.596;11.070;2023-12-20T06:58:08;98243.31;;;9.05
15360;BMP280;7779;49.596;11.070;2023-12-20T07:00:34;98248.41;;;9.07
15360;BMP280;7779;49.596;11.070;2023-12-20T07:03:00;98259.25;;;9.07
15360;BMP280;7779;49.596;11.070;2023-12-20T07:05:25;98253.47;;;9.08
15360;BMP280;7779;49.596;11.070;2023-12-20T07:07:52;98257.69;;;9.09
15360;BMP280;7779;49.596;11.070;2023-12-20T07:10:18;98262.81;;;9.11
15360;BMP280;7779;49.596;11.070;2023-12-20T07:12:43;98274.50;;;9.12
15360;BMP280;7779;49.596;11.070;2023-12-20T07:15:09;98272.00;;;9.12
15360;BMP280;7779;49.596;11.070;2023-12-20T07:17:35;98278.84;;;9.14
15360;BMP280;7779;49.596;11.070;2023-12-20T07:20:01;98292.28;;;9.16
15360;BMP280;7779;49.596;11.070;2023-12-20T07:22:33;98286.50;;;9.17
15360;BMP280;7779;49.596;11.070;2023-12-20T07:25:00;98287.47;;;9.19
15360;BMP280;7779;49.596;11.070;2023-12-20T07:27:26;98289.19;;;9.20
15360;BMP280;7779;49.596;11.070;2023-12-20T07:29:52;98296.91;;;9.23
15360;BMP280;7779;49.596;11.070;2023-12-20T07:32:18;98295.25;;;9.24
15360;BMP280;7779;49.596;11.070;2023-12-20T07:34:44;98295.44;;;9.27
15360;BMP280;7779;49.596;11.070;2023-12-20T07:37:10;98291.47;;;9.30
15360;BMP280;7779;49.596;11.070;2023-12-20T07:39:39;98296.47;;;9.30
15360;BMP280;7779;49.596;11.070;2023-12-20T07:42:06;98306.66;;;9.33
15360;BMP280;7779;49.596;11.070;2023-12-20T07:44:32;98311.75;;;9.34
15360;BMP280;7779;49.596;11.070;2023-12-20T07:46:57;98314.44;;;9.37
15360;BMP280;7779;49.596;11.070;2023-12-20T07:49:24;98308.75;;;9.40
15360;BMP280;7779;49.596;11.070;2023-12-20T07:51:49;98308.06;;;9.42
15360;BMP280;7779;49.596;11.070;2023-12-20T07:54:16;98312.41;;;9.45
15360;BMP280;7779;49.596;11.070;2023-12-20T07:56:42;98310.16;;;9.49
15360;BMP280;7779;49.596;11.070;2023-12-20T07:59:07;98309.56;;;9.53
15360;BMP280;7779;49.596;11.070;2023-12-20T08:01:33;98320.59;;;9.57
15360;BMP280;7779;49.596;11.070;2023-12-20T08:03:59;98319.06;;;9.59
15360;BMP280;7779;49.596;11.070;2023-12-20T08:06:25;98314.94;;;9.59
15360;BMP280;7779;49.596;11.070;2023-12-20T08:08:50;98320.03;;;9.61
15360;BMP280;7779;49.596;11.070;2023-12-20T08:11:16;98312.59;;;9.62
15360;BMP280;7779;49.596;11.070;2023-12-20T08:13:43;98312.03;;;9.66
15360;BMP280;7779;49.596;11.070;2023-12-20T08:16:08;98312.88;;;9.67
15360;BMP280;7779;49.596;11.070;2023-12-20T08:18:34;98313.84;;;9.69
15360;BMP280;7779;49.596;11.070;2023-12-20T08:21:00;98314.03;;;9.72
15360;BMP280;7779;49.596;11.070;2023-12-20T08:23:27;98317.47;;;9.73
15360;BMP280;7779;49.596;11.070;2023-12-20T08:25:53;98319.19;;;9.74
15360;BMP280;7779;49.596;11.070;2023-12-20T08:28:18;98328.34;;;9.74
15360;BMP280;7779;49.596;11.070;2023-12-20T08:30:44;98319.88;;;9.72
15360;BMP280;7779;49.596;11.070;2023-12-20T08:33:10;98319.97;;;9.73
15360;BMP280;7779;49.596;11.070;2023-12-20T08:35:39;98322.28;;;9.71
15360;BMP280;7779;49.596;11.070;2023-12-20T08:38:05;98318.03;;;9.70
15360;BMP280;7779;49.596;11.070;2023-12-20T08:40:31;98321.25;;;9.67
15360;BMP280;7779;49.596;11.070;2023-12-20T08:42:57;98328.66;;;9.66
15360;BMP280;7779;49.596;11.070;2023-12-20T08:45:23;98316.13;;;9.66
15360;BMP280;7779;49.596;11.070;2023-12-20T08:47:48;98312.88;;;9.67
15360;BMP280;7779;49.596;11.070;2023-12-20T08:50:14;98316.25;;;9.67
15360;BMP280;7779;49.596;11.070;2023-12-20T08:52:41;98306.22;;;9.67
15360;BMP280;7779;49.596;11.070;2023-12-20T08:55:07;98313.84;;;9.69
15360;BMP280;7779;49.596;11.070;2023-12-20T08:57:33;98318.03;;;9.70
15360;BMP280;7779;49.596;11.070;2023-12-20T08:59:59;98323.34;;;9.74
15360;BMP280;7779;49.596;11.070;2023-12-20T09:02:25;98315.81;;;9.74
15360;BMP280;7779;49.596;11.070;2023-12-20T09:04:50;98321.44;;;9.70
15360;BMP280;7779;49.596;11.070;2023-12-20T09:07:26;98323.84;;;9.69
15360;BMP280;7779;49.596;11.070;2023-12-20T09:09:52;98325.19;;;9.64
15360;BMP280;7779;49.596;11.070;2023-12-20T09:12:21;98323.28;;;9.60
15360;BMP280;7779;49.596;11.070;2023-12-20T09:14:48;98324.00;;;9.57
15360;BMP280;7779;49.596;11.070;2023-12-20T09:17:15;98319.84;;;9.58
15360;BMP280;7779;49.596;11.070;2023-12-20T09:19:42;98324.00;;;9.57
15360;BMP280;7779;49.596;11.070;2023-12-20T09:22:10;98319.00;;;9.57
15360;BMP280;7779;49.596;11.070;2023-12-20T09:24:36;98311.38;;;9.56
15360;BMP280;7779;49.596;11.070;2023-12-20T09:27:02;98319.84;;;9.58
15360;BMP280;7779;49.596;11.070;2023-12-20T09:29:28;98323.09;;;9.57
15360;BMP280;7779;49.596;11.070;2023-12-20T09:31:54;98319.00;;;9.57
15360;BMP280;7779;49.596;11.070;2023-12-20T09:34:20;98326.56;;;9.59
15360;BMP280;7779;49.596;11.070;2023-12-20T09:36:46;98327.44;;;9.59
15360;BMP280;7779;49.596;11.070;2023-12-20T09:39:14;98327.59;;;9.62
15360;BMP280;7779;49.596;11.070;2023-12-20T09:41:44;98326.06;;;9.64
15360;BMP280;7779;49.596;11.070;2023-12-20T09:44:16;98338.84;;;9.69
15360;BMP280;7779;49.596;11.070;2023-12-20T09:46:45;98340.00;;;9.73
15360;BMP280;7779;49.596;11.070;2023-12-20T09:49:15;98332.22;;;9.83
15360;BMP280;7779;49.596;11.070;2023-12-20T09:51:43;98337.81;;;9.92
15360;BMP280;7779;49.596;11.070;2023-12-20T09:54:10;98342.47;;;10.01
15360;BMP280;7779;49.596;11.070;2023-12-20T09:56:37;98341.38;;;10.10
15360;BMP280;7779;49.596;11.070;2023-12-20T09:59:03;98336.88;;;10.19
15360;BMP280;7779;49.596;11.070;2023-12-20T10:01:31;98333.16;;;10.27
15360;BMP280;7779;49.596;11.070;2023-12-20T10:03:58;98344.56;;;10.36
15360;BMP280;7779;49.596;11.070;2023-12-20T10:06:24;98332.50;;;10.44
15360;BMP280;7779;49.596;11.070;2023-12-20T10:08:50;98329.38;;;10.48
15360;BMP280;7779;49.596;11.070;2023-12-20T10:11:16;98326.06;;;10.49
15360;BMP280;7779;49.596;11.070;2023-12-20T10:13:42;98330.41;;;10.51
15360;BMP280;7779;49.596;11.070;2023-12-20T10:16:08;98330.50;;;10.52
15360;BMP280;7779;49.596;11.070;2023-12-20T10:18:34;98329.88;;;10.56
15360;BMP280;7779;49.596;11.070;2023-12-20T10:21:00;98311.72;;;10.60
15360;BMP280;7779;49.596;11.070;2023-12-20T10:23:26;98316.97;;;10.65
15360;BMP280;7779;49.596;11.070;2023-12-20T10:25:59;98312.16;;;10.68
15360;BMP280;7779;49.596;11.070;2023-12-20T10:28:26;98306.19;;;10.66
15360;BMP280;7779;49.596;11.070;2023-12-20T10:30:55;98314.41;;;10.63
15360;BMP280;7779;49.596;11.070;2023-12-20T10:33:27;98306.63;;;10.59
15360;BMP280;7779;49.596;11.070;2023-12-20T10:35:55;98317.28;;;10.55
15360;BMP280;7779;49.596;11.070;2023-12-20T10:38:21;98303.00;;;10.54
15360;BMP280;7779;49.596;11.070;2023-12-20T10:40:48;98306.41;;;10.54
15360;BMP280;7779;49.596;11.070;2023-12-20T10:43:15;98295.50;;;10.54
15360;BMP280;7779;49.596;11.070;2023-12-20T10:45:42;98295.66;;;10.57
15360;BMP280;7779;49.596;11.070;2023-12-20T10:48:11;98292.41;;;10.58
15360;BMP280;7779;49.596;11.070;2023-12-20T10:50:38;98294.19;;;10.60
15360;BMP280;7779;49.596;11.070;2023-12-20T10:53:04;98282.72;;;10.64
15360;BMP280;7779;49.596;11.070;2023-12-20T10:55:30;98289.50;;;10.66
15360;BMP280;7779;49.596;11.070;2023-12-20T10:58:07;98286.38;;;10.70
15360;BMP280;7779;49.596;11.070;2023-12-20T11:00:42;98279.84;;;10.72
15360;BMP280;7779;49.596;11.070;2023-12-20T11:03:10;98282.50;;;10.75
15360;BMP280;7779;49.596;11.070;2023-12-20T11:05:53;98286.22;;;10.82
15360;BMP280;7779;49.596;11.070;2023-12-20T11:08:36;98272.19;;;10.85
15360;BMP280;7779;49.596;11.070;2023-12-20T11:11:14;98272.19;;;10.85
15360;BMP280;7779;49.596;11.070;2023-12-20T11:13:57;98267.19;;;10.85
15360;BMP280;7779;49.596;11.070;2023-12-20T11:16:24;98264.50;;;10.82
15360;BMP280;7779;49.596;11.070;2023-12-20T11:18:51;98267.09;;;10.84
15360;BMP280;7779;49.596;11.070;2023-12-20T11:21:17;98272.97;;;10.84
15360;BMP280;7779;49.596;11.070;2023-12-20T11:23:42;98269.59;;;10.84
15360;BMP280;7779;49.596;11.070;2023-12-20T11:26:08;98274.72;;;10.85
15360;BMP280;7779;49.596;11.070;2023-12-20T11:28:34;98261.28;;;10.85
15360;BMP280;7779;49.596;11.070;2023-12-20T11:31:01;98268.75;;;10.83
15360;BMP280;7779;49.596;11.070;2023-12-20T11:33:36;98257.84;;;10.83
15360;BMP280;7779;49.596;11.070;2023-12-20T11:36:03;98258.66;;;10.82
15360;BMP280;7779;49.596;11.070;2023-12-20T11:38:38;98271.94;;;10.81
15360;BMP280;7779;49.596;11.070;2023-12-20T11:41:06;98269.28;;;10.78
15360;BMP280;7779;49.596;11.070;2023-12-20T11:43:36;98269.19;;;10.76
15360;BMP280;7779;49.596;11.070;2023-12-20T11:46:07;98271.72;;;10.76
15360;BMP280;7779;49.596;11.070;2023-12-20T11:48:37;98270.81;;;10.76
15360;BMP280;7779;49.596;11.070;2023-12-20T11:51:09;98265.75;;;10.74
15360;BMP280;7779;49.596;11.070;2023-12-20T11:53:35;98272.38;;;10.74
15360;BMP280;7779;49.596;11.070;2023-12-20T11:56:04;98270.69;;;10.73
15360;BMP280;7779;49.596;11.070;2023-12-20T11:58:32;98261.50;;;10.73
15360;BMP280;7779;49.596;11.070;2023-12-20T12:00:58;98253.91;;;10.72
15360;BMP280;7779;49.596;11.070;2023-12-20T12:03:24;98261.34;;;10.70
15360;BMP280;7779;49.596;11.070;2023-12-20T12:05:50;98263.78;;;10.69
15360;BMP280;7779;49.596;11.070;2023-12-20T12:08:17;98260.34;;;10.67
15360;BMP280;7779;49.596;11.070;2023-12-20T12:10:45;98256.00;;;10.64
15360;BMP280;7779;49.596;11.070;2023-12-20T12:13:11;98263.44;;;10.63
15360;BMP280;7779;49.596;11.070;2023-12-20T12:15:37;98254.13;;;10.60
15360;BMP280;7779;49.596;11.070;2023-12-20T12:18:04;98254.03;;;10.59
15360;BMP280;7779;49.596;11.070;2023-12-20T12:20:31;98250.66;;;10.58
15360;BMP280;7779;49.596;11.070;2023-12-20T12:25:25;98251.63;;;10.60
15360;BMP280;7779;49.596;11.070;2023-12-20T12:27:51;98254.88;;;10.59
15360;BMP280;7779;49.596;11.070;2023-12-20T12:30:17;98254.81;;;10.58
15360;BMP280;7779;49.596;11.070;2023-12-20T12:32:47;98250.66;;;10.58
15360;BMP280;7779;49.596;11.070;2023-12-20T12:35:13;98245.66;;;10.58
15360;BMP280;7779;49.596;11.070;2023-12-20T12:37:41;98246.44;;;10.57
15360;BMP280;7779;49.596;11.070;2023-12-20T12:40:15;98239.72;;;10.56
15360;BMP280;7779;49.596;11.070;2023-12-20T12:42:43;98246.44;;;10.57
15360;BMP280;7779;49.596;11.070;2023-12-20T12:45:09;98237.13;;;10.55
15360;BMP280;7779;49.596;11.070;2023-12-20T12:47:37;98238.78;;;10.54
15360;BMP280;7779;49.596;11.070;2023-12-20T12:50:03;98241.19;;;10.53
15360;BMP280;7779;49.596;11.070;2023-12-20T12:52:30;98244.44;;;10.52
15360;BMP280;7779;49.596;11.070;2023-12-20T12:54:56;98242.75;;;10.51
15360;BMP280;7779;49.596;11.070;2023-12-20T12:57:22;98240.91;;;10.49
15360;BMP280;7779;49.596;11.070;2023-12-20T12:59:49;98235.06;;;10.48
15360;BMP280;7779;49.596;11.070;2023-12-20T13:02:15;98239.97;;;10.47
15360;BMP280;7779;49.596;11.070;2023-12-20T13:04:41;98227.44;;;10.47
15360;BMP280;7779;49.596;11.070;2023-12-20T13:07:09;98234.13;;;10.46
15360;BMP280;7779;49.596;11.070;2023-12-20T13:09:38;98227.38;;;10.45
15360;BMP280;7779;49.596;11.070;2023-12-20T13:12:06;98229.81;;;10.44
15360;BMP280;7779;49.596;11.070;2023-12-20T13:14:35;98236.53;;;10.45
15360;BMP280;7779;49.596;11.070;2023-12-20T13:17:03;98243.09;;;10.43
15360;BMP280;7779;49.596;11.070;2023-12-20T13:19:29;98233.09;;;10.43
15360;BMP280;7779;49.596;11.070;2023-12-20T13:21:56;98242.91;;;10.40
15360;BMP280;7779;49.596;11.070;2023-12-20T13:24:22;98239.66;;;10.41
15360;BMP280;7779;49.596;11.070;2023-12-20T13:26:47;98235.41;;;10.40
15360;BMP280;7779;49.596;11.070;2023-12-20T13:29:13;98237.91;;;10.40
15360;BMP280;7779;49.596;11.070;2023-12-20T13:31:39;98233.59;;;10.37
15360;BMP280;7779;49.596;11.070;2023-12-20T13:34:06;98221.00;;;10.36
15360;BMP280;7779;49.596;11.070;2023-12-20T13:36:32;98230.06;;;10.34
15360;BMP280;7779;49.596;11.070;2023-12-20T13:38:58;98224.13;;;10.32
15360;BMP280;7779;49.596;11.070;2023-12-20T13:41:23;98229.03;;;10.30
15360;BMP280;7779;49.596;11.070;2023-12-20T13:43:49;98227.16;;;10.26
15360;BMP280;7779;49.596;11.070;2023-12-20T13:46:15;98237.09;;;10.25
15360;BMP280;7779;49.596;11.070;2023-12-20T13:48:40;98236.03;;;10.21
15360;BMP280;7779;49.596;11.070;2023-12-20T13:51:07;98232.59;;;10.19
15360;BMP280;7779;49.596;11.070;2023-12-20T13:53:33;98226.56;;;10.16
15360;BMP280;7779;49.596;11.070;2023-12-20T13:55:59;98223.91;;;10.13
15360;BMP280;7779;49.596;11.070;2023-12-20T13:58:26;98221.41;;;10.13
15360;BMP280;7779;49.596;11.070;2023-12-20T14:00:51;98220.50;;;10.13
15360;BMP280;7779;49.596;11.070;2023-12-20T14:03:18;98215.50;;;10.13
15360;BMP280;7779;49.596;11.070;2023-12-20T14:05:45;98216.41;;;10.13
15360;BMP280;7779;49.596;11.070;2023-12-20T14:08:11;98225.47;;;10.11
15360;BMP280;7779;49.596;11.070;2023-12-20T14:10:37;98227.78;;;10.08
15360;BMP280;7779;49.596;11.070;2023-12-20T14:13:04;98208.44;;;10.06
15360;BMP280;7779;49.596;11.070;2023-12-20T14:15:31;98218.38;;;10.04